createdAt,value
2018-06-20T00:00:41.890Z,20.00
2018-06-20T00:03:10.608Z,20.00
2018-06-20T00:05:39.381Z,20.00
2018-06-20T00:08:08.051Z,19.90
2018-06-20T00:10:36.720Z,19.90
2018-06-20T00:13:05.521Z,19.80
2018-06-20T00:15:34.227Z,19.60
2018-06-20T00:18:02.939Z,19.60
2018-06-20T00:20:31.676Z,19.60
2018-06-20T00:23:00.545Z,19.60
2018-06-20T00:25:29.202Z,19.50
2018-06-20T00:27:57.889Z,19.50
2018-06-20T00:30:26.571Z,19.50
2018-06-20T00:32:55.264Z,19.50
2018-06-20T00:35:23.903Z,19.50
2018-06-20T00:37:52.625Z,19.50
2018-06-20T00:40:21.296Z,19.50
2018-06-20T00:42:49.947Z,19.50
2018-06-20T00:45:18.674Z,19.40
2018-06-20T00:47:47.329Z,19.40
2018-06-20T00:50:16.046Z,19.10
2018-06-20T00:52:44.790Z,19.00
2018-06-20T00:55:13.532Z,19.00
2018-06-20T00:57:42.171Z,18.90
2018-06-20T01:00:10.835Z,18.90
2018-06-20T01:02:44.791Z,18.90
2018-06-20T01:05:13.556Z,18.90
2018-06-20T01:07:42.256Z,18.90
2018-06-20T01:10:10.999Z,18.90
2018-06-20T01:12:39.759Z,18.90
2018-06-20T01:15:08.393Z,18.90
2018-06-20T01:17:37.060Z,18.90
2018-06-20T01:22:34.048Z,18.90
2018-06-20T01:25:02.735Z,18.90
2018-06-20T01:27:31.387Z,18.90
2018-06-20T01:30:00.065Z,18.90
2018-06-20T01:32:29.046Z,18.70
2018-06-20T01:34:57.729Z,18.60
2018-06-20T01:37:26.361Z,18.50
2018-06-20T01:39:55.060Z,18.50
2018-06-20T01:45:17.295Z,18.40
2018-06-20T01:47:45.970Z,18.40
2018-06-20T01:50:14.762Z,18.40
2018-06-20T01:55:29.875Z,18.40
2018-06-20T01:57:58.615Z,18.40
2018-06-20T02:00:27.308Z,18.40
2018-06-20T02:02:56.178Z,18.30
2018-06-20T02:05:24.855Z,18.10
2018-06-20T02:07:53.510Z,18.00
2018-06-20T02:10:22.266Z,18.00
2018-06-20T02:13:00.378Z,17.90
2018-06-20T02:15:28.997Z,17.90
2018-06-20T02:17:57.681Z,18.00
2018-06-20T02:20:26.382Z,18.00
2018-06-20T02:22:54.982Z,18.00
2018-06-20T02:25:23.707Z,18.00
2018-06-20T02:27:52.396Z,18.10
2018-06-20T02:30:21.108Z,18.10
2018-06-20T02:32:49.787Z,18.00
2018-06-20T02:35:18.412Z,17.90
2018-06-20T02:37:47.070Z,17.80
2018-06-20T02:40:15.823Z,17.60
2018-06-20T02:42:44.682Z,17.50
2018-06-20T02:45:13.415Z,17.40
2018-06-20T02:47:43.108Z,17.40
2018-06-20T02:50:12.759Z,17.40
2018-06-20T02:52:41.820Z,17.40
2018-06-20T02:55:10.406Z,17.40
2018-06-20T02:57:39.071Z,17.40
2018-06-20T03:00:07.745Z,17.50
2018-06-20T03:02:36.419Z,17.50
2018-06-20T03:05:05.351Z,17.30
2018-06-20T03:07:34.020Z,17.20
2018-06-20T03:10:02.695Z,17.10
2018-06-20T03:12:31.388Z,17.10
2018-06-20T03:15:00.021Z,17.10
2018-06-20T03:17:28.719Z,17.10
2018-06-20T03:19:57.396Z,17.10
2018-06-20T03:28:11.711Z,17.00
2018-06-20T03:30:40.376Z,16.90
2018-06-20T03:33:09.041Z,16.90
2018-06-20T03:35:37.883Z,16.80
2018-06-20T03:38:06.534Z,16.90
2018-06-20T03:40:35.200Z,17.00
2018-06-20T03:43:26.628Z,17.00
2018-06-20T03:45:55.272Z,16.90
2018-06-20T03:48:23.935Z,16.80
2018-06-20T03:50:52.661Z,16.70
2018-06-20T03:56:28.157Z,16.70
2018-06-20T03:59:11.310Z,16.60
2018-06-20T04:02:02.663Z,16.60
2018-06-20T04:04:31.299Z,16.50
2018-06-20T04:06:59.948Z,16.50
2018-06-20T04:09:28.731Z,16.50
2018-06-20T04:11:57.375Z,16.50
2018-06-20T04:14:26.087Z,16.60
2018-06-20T04:16:54.728Z,16.60
2018-06-20T04:19:23.447Z,16.40
2018-06-20T04:27:42.666Z,16.20
2018-06-20T04:30:11.452Z,16.20
2018-06-20T04:32:40.352Z,16.20
2018-06-20T04:35:09.035Z,16.20
2018-06-20T04:37:37.693Z,16.20
2018-06-20T04:40:06.896Z,16.20
2018-06-20T04:45:28.252Z,16.20
2018-06-20T04:47:56.922Z,16.20
2018-06-20T04:50:25.562Z,16.10
2018-06-20T04:52:54.327Z,16.10
2018-06-20T04:55:22.981Z,16.10
2018-06-20T04:57:51.675Z,16.20
2018-06-20T05:00:20.322Z,16.20
2018-06-20T05:02:49.104Z,16.20
2018-06-20T05:05:17.799Z,16.10
2018-06-20T05:07:46.467Z,16.10
2018-06-20T05:10:15.178Z,16.00
2018-06-20T05:12:43.870Z,16.00
2018-06-20T05:15:12.577Z,16.00
2018-06-20T05:17:41.291Z,16.10
2018-06-20T05:20:10.000Z,16.10
2018-06-20T05:22:38.728Z,16.20
2018-06-20T05:25:07.410Z,16.10
2018-06-20T05:27:36.012Z,16.10
2018-06-20T05:30:04.691Z,16.10
2018-06-20T05:35:26.517Z,16.20
2018-06-20T05:37:55.158Z,16.30
2018-06-20T05:40:23.930Z,16.30
2018-06-20T05:45:45.675Z,16.30
2018-06-20T05:48:14.311Z,16.40
2018-06-20T05:50:43.023Z,16.40
2018-06-20T05:53:21.119Z,16.50
2018-06-20T05:55:51.247Z,16.60
2018-06-20T05:58:21.030Z,16.70
2018-06-20T06:00:50.075Z,16.70
2018-06-20T06:06:02.055Z,16.70
2018-06-20T06:08:30.751Z,16.60
2018-06-20T06:10:59.391Z,16.50
2018-06-20T06:13:50.949Z,16.60
2018-06-20T06:16:19.777Z,16.50
2018-06-20T06:18:48.575Z,16.60
2018-06-20T06:21:17.276Z,16.60
2018-06-20T06:23:46.096Z,16.70
2018-06-20T06:26:14.799Z,16.80
2018-06-20T06:28:43.479Z,16.80
2018-06-20T06:31:12.252Z,16.80
2018-06-20T06:33:41.087Z,16.90
2018-06-20T06:36:10.054Z,16.90
2018-06-20T06:38:39.228Z,16.90
2018-06-20T06:41:08.131Z,16.90
2018-06-20T06:43:37.729Z,17.00
2018-06-20T06:46:10.067Z,17.00
2018-06-20T06:48:39.459Z,17.00
2018-06-20T06:51:09.675Z,17.00
2018-06-20T06:56:44.857Z,17.10
2018-06-20T06:59:14.121Z,17.10
2018-06-20T07:01:42.990Z,17.20
2018-06-20T07:04:12.342Z,17.20
2018-06-20T07:06:41.092Z,17.20
2018-06-20T07:09:10.664Z,17.20
2018-06-20T07:11:39.431Z,17.20
2018-06-20T07:14:08.279Z,17.20
2018-06-20T07:16:37.119Z,17.30
2018-06-20T07:19:06.514Z,17.60
2018-06-20T07:24:28.003Z,18.40
2018-06-20T07:26:56.726Z,19.00
2018-06-20T07:29:26.009Z,19.50
2018-06-20T07:31:54.946Z,19.80
2018-06-20T07:34:23.760Z,20.10
2018-06-20T07:36:52.727Z,20.50
2018-06-20T07:39:21.830Z,20.80
2018-06-20T07:45:02.616Z,21.10
2018-06-20T07:47:34.436Z,21.30
2018-06-20T07:50:03.227Z,21.60
2018-06-20T07:55:25.526Z,22.10
2018-06-20T07:57:54.288Z,22.20
2018-06-20T08:00:28.421Z,22.40
2018-06-20T08:03:13.676Z,22.60
2018-06-20T08:05:47.818Z,22.70
2018-06-20T08:08:22.484Z,22.80
2018-06-20T08:10:59.958Z,23.10
2018-06-20T08:13:34.273Z,23.20
2018-06-20T08:16:08.113Z,23.50
2018-06-20T08:18:42.343Z,23.60
2018-06-20T08:21:11.104Z,23.80
2018-06-20T08:23:40.276Z,23.80
2018-06-20T08:26:09.090Z,23.90
2018-06-20T08:28:37.971Z,24.00
2018-06-20T08:31:11.074Z,24.10
2018-06-20T08:33:54.197Z,24.20
2018-06-20T08:36:23.201Z,24.30
2018-06-20T08:38:52.826Z,24.30
2018-06-20T08:41:21.889Z,24.50
2018-06-20T08:43:50.744Z,24.60
2018-06-20T08:46:20.075Z,24.60
2018-06-20T08:49:01.625Z,24.70
2018-06-20T08:51:40.446Z,24.60
2018-06-20T08:54:10.234Z,24.80
2018-06-20T08:56:43.070Z,24.90
2018-06-20T08:59:13.082Z,25.00
2018-06-20T09:04:40.621Z,24.90
2018-06-20T09:07:15.075Z,24.90
2018-06-20T09:09:48.956Z,25.10
2018-06-20T09:12:22.919Z,25.10
2018-06-20T09:14:56.963Z,25.20
2018-06-20T09:17:31.061Z,25.30
2018-06-20T09:20:00.927Z,25.50
2018-06-20T09:22:43.839Z,25.40
2018-06-20T09:25:12.980Z,25.50
2018-06-20T09:27:42.223Z,25.40
2018-06-20T09:41:27.752Z,25.80
2018-06-20T09:43:56.599Z,25.80
2018-06-20T09:46:26.739Z,25.90
2018-06-20T09:48:55.483Z,26.10
2018-06-20T09:51:24.256Z,26.20
2018-06-20T09:53:53.851Z,26.30
2018-06-20T09:56:22.767Z,26.30
2018-06-20T09:58:51.490Z,26.40
2018-06-20T10:01:25.500Z,26.50
2018-06-20T10:03:59.441Z,26.50
2018-06-20T10:06:33.626Z,26.50
2018-06-20T10:09:07.267Z,26.50
2018-06-20T10:11:41.476Z,26.50
2018-06-20T10:14:13.796Z,26.60
2018-06-20T10:16:42.695Z,26.60
2018-06-20T10:19:11.445Z,26.70
2018-06-20T10:21:40.646Z,26.90
2018-06-20T10:24:09.659Z,26.90
2018-06-20T10:26:39.861Z,26.90
2018-06-20T10:29:08.757Z,26.80
2018-06-20T10:31:51.168Z,26.70
2018-06-20T10:34:20.117Z,26.80
2018-06-20T10:36:49.145Z,26.80
2018-06-20T10:39:17.976Z,26.90
2018-06-20T10:41:47.294Z,26.90
2018-06-20T10:44:17.356Z,26.90
2018-06-20T10:46:51.345Z,27.00
2018-06-20T10:49:20.483Z,27.10
2018-06-20T10:54:42.733Z,27.30
2018-06-20T10:57:16.648Z,27.40
2018-06-20T10:59:50.742Z,27.50
2018-06-20T11:02:24.598Z,27.50
2018-06-20T11:04:58.427Z,27.60
2018-06-20T11:07:32.546Z,27.80
2018-06-20T11:12:27.064Z,27.90
2018-06-20T11:14:55.780Z,28.10
2018-06-20T11:17:24.560Z,28.30
2018-06-20T11:19:53.257Z,28.40
2018-06-20T11:22:22.083Z,28.20
2018-06-20T11:24:50.925Z,28.20
2018-06-20T11:27:19.774Z,28.30
2018-06-20T11:29:48.545Z,28.40
2018-06-20T11:32:17.380Z,28.40
2018-06-20T11:34:46.118Z,28.50
2018-06-20T11:37:15.030Z,28.60
2018-06-20T11:39:43.859Z,28.70
2018-06-20T11:42:12.743Z,28.90
2018-06-20T11:44:41.518Z,29.00
2018-06-20T11:47:16.083Z,29.20
2018-06-20T11:49:48.788Z,29.20
2018-06-20T11:52:28.764Z,29.30
2018-06-20T11:56:00.981Z,29.20
2018-06-20T11:58:35.105Z,29.10
2018-06-20T12:03:55.233Z,29.30
2018-06-20T12:06:29.191Z,29.10
2018-06-20T12:09:03.195Z,29.20
2018-06-20T12:11:37.924Z,29.40
2018-06-20T12:14:14.956Z,29.50
2018-06-20T12:16:47.646Z,29.60
2018-06-20T12:19:23.143Z,29.70
2018-06-20T12:21:57.226Z,29.60
2018-06-20T12:24:32.344Z,29.60
2018-06-20T12:27:06.364Z,29.50
2018-06-20T12:29:40.479Z,29.60
2018-06-20T12:32:15.000Z,29.50
2018-06-20T12:34:48.849Z,29.50
2018-06-20T12:37:22.810Z,29.70
2018-06-20T12:39:55.911Z,29.70
2018-06-20T12:42:29.960Z,29.70
2018-06-20T12:45:08.339Z,29.80
2018-06-20T12:47:42.167Z,29.90
2018-06-20T12:50:16.871Z,29.90
2018-06-20T12:52:47.625Z,30.10
2018-06-20T12:55:22.633Z,30.10
2018-06-20T12:57:51.495Z,30.20
2018-06-20T13:00:20.120Z,30.20
2018-06-20T13:02:48.688Z,30.20
2018-06-20T13:05:17.645Z,30.30
2018-06-20T13:07:46.768Z,30.20
2018-06-20T13:10:15.549Z,30.20
2018-06-20T13:12:53.692Z,30.30
2018-06-20T13:15:22.385Z,30.40
2018-06-20T13:17:51.116Z,30.40
2018-06-20T13:20:19.875Z,30.30
2018-06-20T13:23:06.390Z,30.30
2018-06-20T13:25:35.189Z,30.30
2018-06-20T13:28:03.918Z,30.20
2018-06-20T13:30:32.593Z,30.30
2018-06-20T13:33:06.421Z,30.30
2018-06-20T13:35:40.268Z,30.30
2018-06-20T13:40:19.620Z,30.30
2018-06-20T13:42:53.703Z,30.30
2018-06-20T13:45:28.798Z,30.40
2018-06-20T13:48:02.690Z,30.60
2018-06-20T13:50:31.682Z,30.70
2018-06-20T13:53:00.582Z,30.80
2018-06-20T13:55:29.447Z,30.80
2018-06-20T13:58:00.025Z,30.70
2018-06-20T14:00:29.718Z,30.60
2018-06-20T14:02:58.909Z,30.60
2018-06-20T14:05:27.795Z,30.60
2018-06-20T14:07:57.300Z,30.60
2018-06-20T14:10:26.319Z,30.60
2018-06-20T14:13:11.093Z,30.70
2018-06-20T14:15:44.303Z,30.80
2018-06-20T14:18:20.026Z,30.60
2018-06-20T14:23:53.118Z,30.50
2018-06-20T14:26:23.078Z,30.50
2018-06-20T14:28:52.809Z,30.60
2018-06-20T14:31:29.648Z,30.50
2018-06-20T14:34:03.632Z,30.40
2018-06-20T14:36:37.723Z,30.50
2018-06-20T14:39:14.810Z,30.50
2018-06-20T14:41:49.312Z,30.60
2018-06-20T14:44:18.006Z,30.70
2018-06-20T14:46:46.942Z,30.80
2018-06-20T14:49:16.736Z,30.80
2018-06-20T14:52:08.369Z,30.60
2018-06-20T14:54:39.467Z,30.60
2018-06-20T14:57:08.324Z,30.50
2018-06-20T14:59:37.243Z,30.60
2018-06-20T15:04:59.010Z,30.50
2018-06-20T15:07:27.902Z,30.50
2018-06-20T15:09:56.716Z,30.60
2018-06-20T15:15:19.586Z,30.60
2018-06-20T15:17:48.511Z,30.60
2018-06-20T15:20:17.341Z,30.60
2018-06-20T15:22:47.892Z,30.60
2018-06-20T15:25:20.969Z,30.60
2018-06-20T15:27:55.201Z,30.60
2018-06-20T15:30:30.094Z,30.60
2018-06-20T15:33:04.435Z,30.70
2018-06-20T15:35:38.764Z,30.80
2018-06-20T15:38:13.103Z,30.70
2018-06-20T15:40:42.073Z,30.60
2018-06-20T15:45:52.739Z,30.70
2018-06-20T15:48:21.493Z,30.70
2018-06-20T15:50:50.298Z,30.60
2018-06-20T15:53:19.109Z,30.80
2018-06-20T15:55:47.814Z,30.90
2018-06-20T15:58:16.489Z,30.90
2018-06-20T16:00:45.234Z,30.90
2018-06-20T16:03:13.962Z,30.80
2018-06-20T16:05:43.111Z,30.80
2018-06-20T16:08:11.828Z,30.80
2018-06-20T16:10:40.516Z,30.70
2018-06-20T16:13:09.214Z,30.80
2018-06-20T16:15:37.986Z,30.70
2018-06-20T16:18:06.746Z,30.60
2018-06-20T16:20:40.565Z,30.60
2018-06-20T16:23:14.422Z,30.60
2018-06-20T16:25:48.314Z,30.60
2018-06-20T16:28:22.216Z,30.60
2018-06-20T16:30:50.917Z,30.60
2018-06-20T16:33:24.571Z,30.50
2018-06-20T16:35:53.225Z,30.50
2018-06-20T16:38:21.937Z,30.50
2018-06-20T16:40:50.598Z,30.30
2018-06-20T16:43:19.384Z,30.10
2018-06-20T16:45:48.057Z,29.90
2018-06-20T16:48:16.735Z,29.90
2018-06-20T16:50:45.471Z,30.00
2018-06-20T16:53:14.133Z,29.90
2018-06-20T16:55:42.781Z,29.80
2018-06-20T16:58:11.456Z,29.70
2018-06-20T17:00:40.142Z,29.70
2018-06-20T17:03:08.770Z,29.60
2018-06-20T17:05:37.464Z,29.50
2018-06-20T17:08:06.139Z,29.40
2018-06-20T17:10:34.782Z,29.30
2018-06-20T17:13:13.518Z,29.20
2018-06-20T17:15:47.368Z,29.20
2018-06-20T17:18:21.080Z,29.10
2018-06-20T17:20:54.909Z,29.00
2018-06-20T17:23:28.977Z,29.00
2018-06-20T17:25:57.588Z,29.00
2018-06-20T17:28:26.273Z,29.00
2018-06-20T17:30:54.986Z,29.00
2018-06-20T17:33:23.787Z,28.90
2018-06-20T17:35:52.399Z,28.90
2018-06-20T17:38:21.155Z,28.80
2018-06-20T17:40:49.785Z,28.80
2018-06-20T17:43:18.498Z,28.70
2018-06-20T17:45:47.174Z,28.70
2018-06-20T17:48:15.746Z,28.70
2018-06-20T17:50:44.456Z,28.70
2018-06-20T17:53:13.091Z,28.60
2018-06-20T17:55:41.763Z,28.50
2018-06-20T17:58:10.317Z,28.40
2018-06-20T18:00:44.243Z,28.40
2018-06-20T18:03:13.226Z,28.40
2018-06-20T18:05:47.188Z,28.40
2018-06-20T18:08:20.990Z,28.30
2018-06-20T18:10:54.946Z,28.20
2018-06-20T18:13:28.861Z,28.20
2018-06-20T18:16:02.643Z,28.10
2018-06-20T18:18:31.275Z,28.00
2018-06-20T18:20:59.939Z,28.00
2018-06-20T18:23:28.784Z,27.90
2018-06-20T18:25:57.450Z,27.90
2018-06-20T18:28:26.022Z,27.80
2018-06-20T18:30:54.632Z,27.80
2018-06-20T18:33:23.313Z,27.70
2018-06-20T18:35:51.937Z,27.60
2018-06-20T18:38:20.633Z,27.50
2018-06-20T18:40:49.275Z,27.40
2018-06-20T18:43:17.931Z,27.40
2018-06-20T18:45:46.578Z,27.40
2018-06-20T18:48:20.268Z,27.30
2018-06-20T18:50:48.962Z,27.20
2018-06-20T18:53:17.659Z,27.10
2018-06-20T18:55:46.263Z,27.00
2018-06-20T18:58:20.303Z,27.00
2018-06-20T19:00:54.194Z,27.00
2018-06-20T19:03:28.067Z,27.00
2018-06-20T19:06:01.766Z,26.90
2018-06-20T19:08:35.589Z,26.90
2018-06-20T19:11:04.282Z,26.80
2018-06-20T19:13:33.150Z,26.70
2018-06-20T19:16:02.398Z,26.50
2018-06-20T19:18:31.053Z,26.40
2018-06-20T19:20:59.712Z,26.30
2018-06-20T19:23:28.355Z,26.20
2018-06-20T19:25:57.026Z,26.10
2018-06-20T19:28:25.704Z,26.10
2018-06-20T19:30:54.376Z,26.10
2018-06-20T19:33:22.959Z,26.00
2018-06-20T19:35:51.627Z,26.00
2018-06-20T19:38:20.279Z,25.90
2018-06-20T19:40:48.881Z,25.90
2018-06-20T19:43:17.736Z,25.90
2018-06-20T19:45:46.451Z,25.80
2018-06-20T19:48:15.103Z,25.70
2018-06-20T19:50:43.770Z,25.60
2018-06-20T19:53:12.463Z,25.50
2018-06-20T19:55:41.093Z,25.30
2018-06-20T19:58:09.732Z,25.30
2018-06-20T20:00:38.363Z,25.20
2018-06-20T20:03:12.160Z,25.20
2018-06-20T20:05:40.815Z,25.10
2018-06-20T20:08:09.478Z,25.00
2018-06-20T20:10:38.138Z,24.90
2018-06-20T20:13:06.807Z,24.90
2018-06-20T20:15:35.472Z,25.00
2018-06-20T20:18:04.167Z,25.00
2018-06-20T20:20:32.862Z,24.90
2018-06-20T20:23:01.559Z,24.80
2018-06-20T20:25:30.183Z,24.60
2018-06-20T20:27:58.821Z,24.60
2018-06-20T20:30:27.500Z,24.50
2018-06-20T20:32:56.357Z,24.40
2018-06-20T20:35:24.967Z,24.30
2018-06-20T20:37:53.565Z,24.30
2018-06-20T20:40:22.207Z,24.20
2018-06-20T20:42:51.087Z,24.20
2018-06-20T20:45:19.675Z,24.10
2018-06-20T20:47:48.313Z,24.10
2018-06-20T20:50:17.000Z,24.10
2018-06-20T20:52:45.665Z,24.10
2018-06-20T20:55:14.324Z,24.00
2018-06-20T20:57:42.978Z,23.90
2018-06-20T21:00:12.504Z,23.80
2018-06-20T21:02:41.213Z,23.70
2018-06-20T21:05:09.910Z,23.70
2018-06-20T21:07:38.679Z,23.70
2018-06-20T21:10:07.344Z,23.60
2018-06-20T21:12:36.277Z,23.60
2018-06-20T21:15:05.058Z,23.60
2018-06-20T21:17:33.719Z,23.60
2018-06-20T21:20:02.335Z,23.60
2018-06-20T21:22:31.005Z,23.50
2018-06-20T21:24:59.687Z,23.50
2018-06-20T21:27:28.394Z,23.50
2018-06-20T21:32:49.656Z,23.50
2018-06-20T21:35:18.293Z,23.50
2018-06-20T21:37:46.926Z,23.40
2018-06-20T21:40:15.558Z,23.40
2018-06-20T21:42:44.396Z,23.50
2018-06-20T21:45:13.078Z,23.40
2018-06-20T21:47:41.785Z,23.40
2018-06-20T21:50:10.466Z,23.30
2018-06-20T21:52:39.168Z,23.30
2018-06-20T21:55:07.786Z,23.30
2018-06-20T21:57:36.459Z,23.40
2018-06-20T22:00:08.216Z,23.30
2018-06-20T22:02:36.852Z,23.40
2018-06-20T22:05:05.629Z,23.30
2018-06-20T22:07:34.309Z,23.20
2018-06-20T22:10:03.032Z,23.20
2018-06-20T22:12:31.680Z,23.20
2018-06-20T22:15:00.418Z,23.20
2018-06-20T22:17:29.275Z,23.20
2018-06-20T22:19:57.959Z,23.20
2018-06-20T22:22:26.845Z,23.10
2018-06-20T22:24:55.563Z,23.10
2018-06-20T22:27:24.238Z,23.10
2018-06-20T22:29:52.926Z,23.10
2018-06-20T22:32:21.773Z,23.00
2018-06-20T22:34:50.467Z,23.00
2018-06-20T22:37:19.229Z,23.00
2018-06-20T22:39:47.830Z,22.90
2018-06-20T22:42:16.479Z,22.90
2018-06-20T22:44:45.155Z,22.90
2018-06-20T22:47:13.913Z,22.90
2018-06-20T22:49:42.665Z,22.90
2018-06-20T22:52:11.346Z,22.90
2018-06-20T22:54:40.092Z,23.00
2018-06-20T22:57:08.836Z,23.00
2018-06-20T22:59:37.497Z,23.00
2018-06-20T23:02:06.500Z,22.90
2018-06-20T23:04:35.221Z,22.80
2018-06-20T23:07:03.908Z,22.60
2018-06-20T23:09:32.573Z,22.50
2018-06-20T23:12:01.382Z,22.30
2018-06-20T23:14:30.063Z,22.20
2018-06-20T23:16:58.722Z,22.30
2018-06-20T23:19:27.311Z,22.30
2018-06-20T23:21:56.039Z,22.30
2018-06-20T23:24:24.859Z,22.30
2018-06-20T23:26:53.507Z,22.30
2018-06-20T23:29:22.148Z,22.40
2018-06-20T23:31:50.761Z,22.40
2018-06-20T23:34:19.444Z,22.40
2018-06-20T23:36:48.165Z,22.40
2018-06-20T23:39:16.829Z,22.40
2018-06-20T23:41:45.483Z,22.40
2018-06-20T23:44:14.148Z,22.30
2018-06-20T23:46:42.887Z,22.20
2018-06-20T23:49:11.629Z,22.10
2018-06-20T23:51:40.288Z,22.00
2018-06-20T23:54:08.945Z,21.90
2018-06-20T23:56:37.618Z,21.90
2018-06-20T23:59:06.279Z,21.80
